createdAt,value
2022-08-17T00:02:04.966Z,23.20
2022-08-17T00:04:40.174Z,23.20
2022-08-17T00:07:06.918Z,23.20
2022-08-17T00:09:33.741Z,23.20
2022-08-17T00:12:41.280Z,23.20
2022-08-17T00:14:50.352Z,23.20
2022-08-17T00:17:17.437Z,23.20
2022-08-17T00:19:44.195Z,23.20
2022-08-17T00:22:34.267Z,23.20
2022-08-17T00:24:57.775Z,23.20
2022-08-17T00:27:24.536Z,23.20
2022-08-17T00:29:51.911Z,23.20
2022-08-17T00:33:13.603Z,23.20
2022-08-17T00:35:08.257Z,23.20
2022-08-17T00:37:35.136Z,23.20
2022-08-17T00:40:02.165Z,23.20
2022-08-17T00:42:31.239Z,23.20
2022-08-17T00:44:59.082Z,23.20
2022-08-17T00:47:26.059Z,23.20
2022-08-17T00:49:53.944Z,23.20
2022-08-17T00:52:24.977Z,23.20
2022-08-17T00:54:54.737Z,23.20
2022-08-17T00:57:26.125Z,23.20
2022-08-17T01:00:02.726Z,23.20
2022-08-17T01:02:41.183Z,23.20
2022-08-17T01:05:23.619Z,23.20
2022-08-17T01:07:53.407Z,23.20
2022-08-17T01:10:58.731Z,23.20
2022-08-17T01:13:12.792Z,23.20
2022-08-17T01:15:46.097Z,23.20
2022-08-17T01:18:14.189Z,23.20
2022-08-17T01:20:49.289Z,23.20
2022-08-17T01:23:20.791Z,23.20
2022-08-17T01:25:53.982Z,23.20
2022-08-17T01:28:33.452Z,23.10
2022-08-17T01:31:10.334Z,23.20
2022-08-17T01:33:37.585Z,23.10
2022-08-17T01:36:07.226Z,23.10
2022-08-17T01:38:38.540Z,23.10
2022-08-17T01:41:12.373Z,23.10
2022-08-17T01:44:01.732Z,23.10
2022-08-17T01:46:33.550Z,23.00
2022-08-17T01:49:01.180Z,23.00
2022-08-17T01:51:32.654Z,23.00
2022-08-17T01:54:07.801Z,23.00
2022-08-17T01:56:38.497Z,23.00
2022-08-17T01:59:05.445Z,22.90
2022-08-17T02:01:34.598Z,22.90
2022-08-17T02:04:02.670Z,22.90
2022-08-17T02:06:52.422Z,22.90
2022-08-17T02:09:18.627Z,22.90
2022-08-17T02:11:50.059Z,22.90
2022-08-17T02:14:17.932Z,22.90
2022-08-17T02:16:44.749Z,22.90
2022-08-17T02:19:15.904Z,22.90
2022-08-17T02:21:45.642Z,22.90
2022-08-17T02:25:01.253Z,22.90
2022-08-17T02:27:05.928Z,22.90
2022-08-17T02:29:32.742Z,22.90
2022-08-17T02:32:00.139Z,22.90
2022-08-17T02:34:27.483Z,22.90
2022-08-17T02:36:55.224Z,22.90
2022-08-17T02:39:22.077Z,22.90
2022-08-17T02:41:49.141Z,22.90
2022-08-17T02:44:39.481Z,22.90
2022-08-17T02:47:04.133Z,22.90
2022-08-17T02:49:31.162Z,22.90
2022-08-17T02:51:58.913Z,22.90
2022-08-17T02:54:39.267Z,22.90
2022-08-17T02:57:07.837Z,22.90
2022-08-17T02:59:34.589Z,22.90
2022-08-17T03:02:03.761Z,22.90
2022-08-17T03:04:31.235Z,23.00
2022-08-17T03:07:02.437Z,23.00
2022-08-17T03:09:29.276Z,22.90
2022-08-17T03:12:03.563Z,23.00
2022-08-17T03:14:32.264Z,22.90
2022-08-17T03:16:59.382Z,22.90
2022-08-17T03:19:26.203Z,22.90
2022-08-17T03:21:55.063Z,22.90
2022-08-17T03:24:28.616Z,22.90
2022-08-17T03:26:55.805Z,22.90
2022-08-17T03:29:22.677Z,22.90
2022-08-17T03:31:50.153Z,22.90
2022-08-17T03:34:17.412Z,22.90
2022-08-17T03:36:44.649Z,22.90
2022-08-17T03:39:11.434Z,22.90
2022-08-17T03:41:39.268Z,22.90
2022-08-17T03:44:06.162Z,22.90
2022-08-17T03:46:51.589Z,22.90
2022-08-17T03:49:36.894Z,22.90
2022-08-17T03:52:22.348Z,22.90
2022-08-17T03:55:07.632Z,22.90
2022-08-17T03:57:34.475Z,22.90
2022-08-17T04:00:01.330Z,22.90
2022-08-17T04:02:32.388Z,22.90
2022-08-17T04:04:59.850Z,22.90
2022-08-17T04:07:28.946Z,22.90
2022-08-17T04:09:55.848Z,22.90
2022-08-17T04:12:23.960Z,22.90
2022-08-17T04:14:52.874Z,22.90
2022-08-17T04:17:22.553Z,22.90
2022-08-17T04:19:49.372Z,22.90
2022-08-17T04:22:31.794Z,22.90
2022-08-17T04:25:08.641Z,22.80
2022-08-17T04:27:35.844Z,22.80
2022-08-17T04:30:03.625Z,22.80
2022-08-17T04:32:58.615Z,22.80
2022-08-17T04:35:23.619Z,22.80
2022-08-17T04:37:51.275Z,22.80
2022-08-17T04:40:37.524Z,22.80
2022-08-17T04:43:13.746Z,22.70
2022-08-17T04:46:05.121Z,22.70
2022-08-17T04:48:37.078Z,22.70
2022-08-17T04:51:11.713Z,22.70
2022-08-17T04:53:41.710Z,22.80
2022-08-17T04:56:11.851Z,22.70
2022-08-17T04:58:45.341Z,22.70
2022-08-17T05:01:12.682Z,22.80
2022-08-17T05:03:39.774Z,22.80
2022-08-17T05:06:06.766Z,22.80
2022-08-17T05:08:33.593Z,22.80
2022-08-17T05:11:00.420Z,22.80
2022-08-17T05:13:31.532Z,22.80
2022-08-17T05:16:03.149Z,22.80
2022-08-17T05:18:30.664Z,22.80
2022-08-17T05:20:57.925Z,22.80
2022-08-17T05:23:27.691Z,22.80
2022-08-17T05:26:11.639Z,22.80
2022-08-17T05:28:49.481Z,22.80
2022-08-17T05:31:18.215Z,22.80
2022-08-17T05:33:46.329Z,22.80
2022-08-17T05:36:42.397Z,22.80
2022-08-17T05:39:02.215Z,22.80
2022-08-17T05:41:29.179Z,22.80
2022-08-17T05:43:56.650Z,22.70
2022-08-17T05:46:27.635Z,22.70
2022-08-17T05:49:08.034Z,22.70
2022-08-17T05:51:53.764Z,22.70
2022-08-17T05:54:57.285Z,22.60
2022-08-17T05:57:47.623Z,22.60
2022-08-17T06:00:30.614Z,22.60
2022-08-17T06:03:15.309Z,22.60
2022-08-17T06:05:55.862Z,22.50
2022-08-17T06:08:42.345Z,22.50
2022-08-17T06:11:38.511Z,22.50
2022-08-17T06:14:41.897Z,22.50
2022-08-17T06:17:13.660Z,22.50
2022-08-17T06:19:50.170Z,22.40
2022-08-17T06:22:20.311Z,22.40
2022-08-17T06:25:04.491Z,22.40
2022-08-17T06:28:14.792Z,22.40
2022-08-17T06:31:00.132Z,22.40
2022-08-17T06:33:37.428Z,22.50
2022-08-17T06:36:16.029Z,22.40
2022-08-17T06:39:04.490Z,22.40
2022-08-17T06:41:42.920Z,22.40
2022-08-17T06:44:43.371Z,22.50
2022-08-17T06:47:29.306Z,22.50
2022-08-17T06:50:14.649Z,22.50
2022-08-17T06:52:51.188Z,22.50
2022-08-17T06:55:32.199Z,22.50
2022-08-17T06:58:15.735Z,22.50
2022-08-17T07:00:47.100Z,22.50
2022-08-17T07:03:28.069Z,22.50
2022-08-17T07:06:00.942Z,22.60
2022-08-17T07:08:35.555Z,22.60
2022-08-17T07:11:09.806Z,22.60
2022-08-17T07:13:55.248Z,22.60
2022-08-17T07:16:31.173Z,22.60
2022-08-17T07:18:59.435Z,22.70
2022-08-17T07:21:34.252Z,22.70
2022-08-17T07:24:30.447Z,22.70
2022-08-17T07:27:17.226Z,22.70
2022-08-17T07:30:02.419Z,22.80
2022-08-17T07:32:50.851Z,22.80
2022-08-17T07:35:23.077Z,22.80
2022-08-17T07:38:07.127Z,22.80
2022-08-17T07:41:02.116Z,22.80
2022-08-17T07:43:33.974Z,22.80
2022-08-17T07:46:29.984Z,22.80
2022-08-17T07:49:19.097Z,22.80
2022-08-17T07:51:46.652Z,22.80
2022-08-17T07:54:22.125Z,22.80
2022-08-17T07:56:53.575Z,22.80
2022-08-17T07:59:24.831Z,22.80
2022-08-17T08:01:57.942Z,22.80
2022-08-17T08:05:02.167Z,22.80
2022-08-17T08:07:34.923Z,22.80
2022-08-17T08:10:21.974Z,22.90
2022-08-17T08:13:07.584Z,22.90
2022-08-17T08:15:45.158Z,22.90
2022-08-17T08:18:53.386Z,22.90
2022-08-17T08:21:40.990Z,22.90
2022-08-17T08:24:19.576Z,22.90
2022-08-17T08:27:07.129Z,22.90
2022-08-17T08:29:49.624Z,22.90
2022-08-17T08:32:25.871Z,22.90
2022-08-17T08:35:07.304Z,22.90
2022-08-17T08:37:45.447Z,22.90
2022-08-17T08:40:47.578Z,22.90
2022-08-17T08:43:36.219Z,23.00
2022-08-17T08:46:24.048Z,22.90
2022-08-17T08:48:58.143Z,23.00
2022-08-17T08:51:52.017Z,23.00
2022-08-17T08:54:48.087Z,23.00
2022-08-17T08:57:25.458Z,23.10
2022-08-17T09:00:05.230Z,23.10
2022-08-17T09:02:59.718Z,23.10
2022-08-17T09:05:55.870Z,23.10
2022-08-17T09:08:50.551Z,23.10
2022-08-17T09:12:02.340Z,23.10
2022-08-17T09:14:51.563Z,23.20
2022-08-17T09:17:27.820Z,23.20
2022-08-17T09:20:30.473Z,23.20
2022-08-17T09:23:08.549Z,23.20
2022-08-17T09:25:51.040Z,23.20
2022-08-17T09:28:20.921Z,23.30
2022-08-17T09:30:51.631Z,23.30
2022-08-17T09:33:26.159Z,23.30
2022-08-17T09:35:58.471Z,23.30
2022-08-17T09:38:33.949Z,23.30
2022-08-17T09:41:22.481Z,23.40
2022-08-17T09:43:56.323Z,23.40
2022-08-17T09:46:29.777Z,23.40
2022-08-17T09:49:15.019Z,23.40
2022-08-17T09:51:48.647Z,23.40
2022-08-17T09:54:44.495Z,23.40
2022-08-17T09:57:30.521Z,23.30
2022-08-17T10:00:16.570Z,23.30
2022-08-17T10:02:54.341Z,23.30
2022-08-17T10:05:47.062Z,23.30
2022-08-17T10:08:23.951Z,23.30
2022-08-17T10:11:13.268Z,23.40
2022-08-17T10:13:53.860Z,23.40
2022-08-17T10:16:50.067Z,23.40
2022-08-17T10:19:36.561Z,23.40
2022-08-17T10:22:54.813Z,23.40
2022-08-17T10:25:54.589Z,23.40
2022-08-17T10:28:30.284Z,23.50
2022-08-17T10:31:30.954Z,23.50
2022-08-17T10:34:05.277Z,23.50
2022-08-17T10:37:07.214Z,23.50
2022-08-17T10:40:12.422Z,23.50
2022-08-17T10:42:56.811Z,23.50
2022-08-17T10:45:35.449Z,23.50
2022-08-17T10:48:28.276Z,23.60
2022-08-17T10:51:10.903Z,23.60
2022-08-17T10:53:40.740Z,23.60
2022-08-17T10:56:18.055Z,23.60
2022-08-17T10:58:50.893Z,23.60
2022-08-17T11:01:18.133Z,23.70
2022-08-17T11:03:54.917Z,23.70
2022-08-17T11:06:51.461Z,23.70
2022-08-17T11:09:27.668Z,23.70
2022-08-17T11:12:07.166Z,23.70
2022-08-17T11:14:52.148Z,23.70
2022-08-17T11:17:43.732Z,23.70
2022-08-17T11:21:01.347Z,23.80
2022-08-17T11:24:05.942Z,23.80
2022-08-17T11:26:36.469Z,23.70
2022-08-17T11:29:09.436Z,23.70
2022-08-17T11:31:58.138Z,23.70
2022-08-17T11:34:27.936Z,23.60
2022-08-17T11:37:12.883Z,23.60
2022-08-17T11:39:51.834Z,23.60
2022-08-17T11:42:37.461Z,23.60
2022-08-17T11:45:32.854Z,23.60
2022-08-17T11:48:33.269Z,23.60
2022-08-17T11:51:34.112Z,23.60
2022-08-17T11:56:59.031Z,23.50
2022-08-17T11:59:41.984Z,23.50
2022-08-17T12:02:34.821Z,23.50
2022-08-17T12:05:25.982Z,23.50
2022-08-17T12:07:59.337Z,23.60
2022-08-17T12:10:34.345Z,23.60
2022-08-17T12:13:10.352Z,23.60
2022-08-17T12:15:42.335Z,23.60
2022-08-17T12:18:18.266Z,23.60
2022-08-17T12:20:56.070Z,23.70
2022-08-17T12:23:44.122Z,23.70
2022-08-17T12:26:17.323Z,23.70
2022-08-17T12:28:49.833Z,23.70
2022-08-17T12:31:34.372Z,23.70
2022-08-17T12:34:05.496Z,23.70
2022-08-17T12:36:33.661Z,23.70
2022-08-17T12:39:14.302Z,23.70
2022-08-17T12:41:47.973Z,23.70
2022-08-17T12:44:27.433Z,23.70
2022-08-17T12:47:01.788Z,23.70
2022-08-17T12:49:40.886Z,23.70
2022-08-17T12:52:13.801Z,23.70
2022-08-17T12:54:51.462Z,23.70
2022-08-17T12:57:38.056Z,23.70
2022-08-17T13:00:08.139Z,23.80
2022-08-17T13:02:42.740Z,23.70
2022-08-17T13:05:20.604Z,23.70
2022-08-17T13:07:47.840Z,23.80
2022-08-17T13:10:32.185Z,23.70
2022-08-17T13:13:04.825Z,23.80
2022-08-17T13:15:44.459Z,23.80
2022-08-17T13:18:36.321Z,23.80
2022-08-17T13:21:03.241Z,23.80
2022-08-17T13:23:32.313Z,23.80
2022-08-17T13:26:07.649Z,23.80
2022-08-17T13:28:36.682Z,23.80
2022-08-17T13:31:33.790Z,23.90
2022-08-17T13:34:17.372Z,23.90
2022-08-17T13:36:47.926Z,23.90
2022-08-17T13:39:24.116Z,23.90
2022-08-17T13:41:53.972Z,23.90
2022-08-17T13:44:32.683Z,23.90
2022-08-17T13:47:00.632Z,24.00
2022-08-17T13:49:41.574Z,24.00
2022-08-17T13:52:40.787Z,24.00
2022-08-17T13:55:20.802Z,24.00
2022-08-17T13:58:06.514Z,24.00
2022-08-17T14:00:36.252Z,24.00
2022-08-17T14:03:04.999Z,24.00
2022-08-17T14:05:33.703Z,24.00
2022-08-17T14:08:06.605Z,24.00
2022-08-17T14:10:36.356Z,24.00
2022-08-17T14:13:07.047Z,24.00
2022-08-17T14:15:54.891Z,24.00
2022-08-17T14:18:55.927Z,23.90
2022-08-17T14:21:09.854Z,23.90
2022-08-17T14:23:37.433Z,23.80
2022-08-17T14:26:08.752Z,23.80
2022-08-17T14:28:36.527Z,23.80
2022-08-17T14:31:03.736Z,23.80
2022-08-17T14:33:30.673Z,23.80
2022-08-17T14:35:58.703Z,23.80
2022-08-17T14:38:25.566Z,23.80
2022-08-17T14:40:52.719Z,23.80
2022-08-17T14:43:21.560Z,23.90
2022-08-17T14:45:48.400Z,23.80
2022-08-17T14:48:15.867Z,23.90
2022-08-17T14:50:43.848Z,23.90
2022-08-17T14:53:15.532Z,23.90
2022-08-17T14:55:43.053Z,24.00
2022-08-17T14:58:10.320Z,24.00
2022-08-17T15:00:38.521Z,24.00
2022-08-17T15:03:05.505Z,24.00
2022-08-17T15:05:35.387Z,24.00
2022-08-17T15:08:03.484Z,24.10
2022-08-17T15:10:35.231Z,24.10
2022-08-17T15:13:02.168Z,24.10
2022-08-17T15:15:29.626Z,24.10
2022-08-17T15:17:57.403Z,24.10
2022-08-17T15:20:27.951Z,24.10
2022-08-17T15:22:56.013Z,24.10
2022-08-17T15:25:25.048Z,24.00
2022-08-17T15:27:52.651Z,24.00
2022-08-17T15:30:20.237Z,24.00
2022-08-17T15:32:51.301Z,23.90
2022-08-17T15:35:28.983Z,23.90
2022-08-17T15:38:11.588Z,23.80
2022-08-17T15:40:43.120Z,23.70
2022-08-17T15:43:17.022Z,23.70
2022-08-17T15:45:45.085Z,23.60
2022-08-17T15:48:41.450Z,23.60
2022-08-17T15:51:09.506Z,23.60
2022-08-17T15:53:37.659Z,23.60
2022-08-17T15:56:05.696Z,23.60
2022-08-17T15:58:36.811Z,23.60
2022-08-17T16:01:18.232Z,23.60
2022-08-17T16:04:04.803Z,23.60
2022-08-17T16:06:34.696Z,23.60
2022-08-17T16:09:01.536Z,23.60
2022-08-17T16:11:28.403Z,23.60
2022-08-17T16:13:56.194Z,23.70
2022-08-17T16:16:23.711Z,23.70
2022-08-17T16:18:54.523Z,23.70
2022-08-17T16:21:25.847Z,23.70
2022-08-17T16:24:06.389Z,23.70
2022-08-17T16:26:42.347Z,23.70
2022-08-17T16:29:09.280Z,23.70
2022-08-17T16:31:37.789Z,23.80
2022-08-17T16:34:17.177Z,23.80
2022-08-17T16:36:54.836Z,23.80
2022-08-17T16:39:27.600Z,23.80
2022-08-17T16:41:56.580Z,23.80
2022-08-17T16:44:23.506Z,23.80
2022-08-17T16:46:50.535Z,23.80
2022-08-17T16:49:24.478Z,23.80
2022-08-17T16:52:07.220Z,23.80
2022-08-17T16:54:35.501Z,23.80
2022-08-17T16:57:05.229Z,23.80
2022-08-17T16:59:42.120Z,23.80
2022-08-17T17:02:15.284Z,23.80
2022-08-17T17:05:05.981Z,23.80
2022-08-17T17:07:53.619Z,23.80
2022-08-17T17:10:28.356Z,23.70
2022-08-17T17:13:02.162Z,23.70
2022-08-17T17:15:45.210Z,23.60
2022-08-17T17:18:13.701Z,23.60
2022-08-17T17:20:49.560Z,23.60
2022-08-17T17:23:44.860Z,23.60
2022-08-17T17:26:34.245Z,23.70
2022-08-17T17:29:28.165Z,23.70
2022-08-17T17:32:37.807Z,23.70
2022-08-17T17:35:20.401Z,23.70
2022-08-17T17:37:48.538Z,23.70
2022-08-17T17:40:42.118Z,23.70
2022-08-17T17:43:36.999Z,23.70
2022-08-17T17:46:25.430Z,23.60
2022-08-17T17:48:52.799Z,23.70
2022-08-17T17:51:55.739Z,23.60
2022-08-17T17:54:52.922Z,23.60
2022-08-17T17:57:59.622Z,23.60
2022-08-17T18:00:34.025Z,23.60
2022-08-17T18:03:14.524Z,23.60
2022-08-17T18:06:02.654Z,23.60
2022-08-17T18:08:56.823Z,23.60
2022-08-17T18:11:51.513Z,23.60
2022-08-17T18:14:36.312Z,23.60
2022-08-17T18:17:03.913Z,23.60
2022-08-17T18:19:32.021Z,23.50
2022-08-17T18:22:14.392Z,23.60
2022-08-17T18:24:43.962Z,23.60
2022-08-17T18:27:32.149Z,23.60
2022-08-17T18:30:05.846Z,23.60
2022-08-17T18:32:43.498Z,23.50
2022-08-17T18:35:12.295Z,23.60
2022-08-17T18:37:51.286Z,23.60
2022-08-17T18:40:19.360Z,23.60
2022-08-17T18:43:13.629Z,23.60
2022-08-17T18:45:48.201Z,23.60
2022-08-17T18:48:26.051Z,23.60
2022-08-17T18:50:57.646Z,23.60
2022-08-17T18:53:35.463Z,23.60
2022-08-17T18:56:17.521Z,23.60
2022-08-17T18:58:53.506Z,23.70
2022-08-17T19:01:21.470Z,23.60
2022-08-17T19:04:34.532Z,23.60
2022-08-17T19:07:31.181Z,23.60
2022-08-17T19:10:15.111Z,23.60
2022-08-17T19:12:48.260Z,23.60
2022-08-17T19:15:23.240Z,23.50
2022-08-17T19:18:05.545Z,23.50
2022-08-17T19:20:45.561Z,23.50
2022-08-17T19:23:53.560Z,23.40
2022-08-17T19:26:54.308Z,23.40
2022-08-17T19:29:29.589Z,23.40
2022-08-17T19:31:58.464Z,23.40
2022-08-17T19:34:33.135Z,23.40
2022-08-17T19:37:09.225Z,23.40
2022-08-17T19:39:58.167Z,23.40
2022-08-17T19:43:02.970Z,23.40
2022-08-17T19:45:55.969Z,23.40
2022-08-17T19:48:49.462Z,23.40
2022-08-17T19:51:50.566Z,23.40
2022-08-17T19:54:27.147Z,23.40
2022-08-17T19:57:04.672Z,23.40
2022-08-17T20:00:05.173Z,23.40
2022-08-17T20:02:53.234Z,23.40
2022-08-17T20:05:23.056Z,23.40
2022-08-17T20:08:12.741Z,23.40
2022-08-17T20:10:39.673Z,23.40
2022-08-17T20:13:11.141Z,23.40
2022-08-17T20:15:42.526Z,23.40
2022-08-17T20:18:43.955Z,23.30
2022-08-17T20:21:21.871Z,23.30
2022-08-17T20:24:13.258Z,23.30
2022-08-17T20:27:13.587Z,23.30
2022-08-17T20:30:02.944Z,23.30
2022-08-17T20:32:39.066Z,23.20
2022-08-17T20:35:21.497Z,23.20
2022-08-17T20:38:02.155Z,23.20
2022-08-17T20:40:40.976Z,23.20
2022-08-17T20:43:32.644Z,23.20
2022-08-17T20:46:20.470Z,23.20
2022-08-17T20:48:52.039Z,23.20
2022-08-17T20:51:31.432Z,23.20
2022-08-17T20:54:06.423Z,23.20
2022-08-17T20:56:46.394Z,23.20
2022-08-17T20:59:30.304Z,23.10
2022-08-17T21:02:08.065Z,23.10
2022-08-17T21:04:50.280Z,23.10
2022-08-17T21:07:42.954Z,23.10
2022-08-17T21:10:25.933Z,23.10
2022-08-17T21:13:04.411Z,23.10
2022-08-17T21:15:51.724Z,23.10
2022-08-17T21:18:18.462Z,23.10
2022-08-17T21:21:02.915Z,23.10
2022-08-17T21:24:13.813Z,23.10
2022-08-17T21:27:01.783Z,23.10
2022-08-17T21:29:33.830Z,23.10
2022-08-17T21:32:03.824Z,23.10
2022-08-17T21:34:36.671Z,23.10
2022-08-17T21:37:25.263Z,23.20
2022-08-17T21:40:10.455Z,23.20
2022-08-17T21:42:58.157Z,23.20
2022-08-17T21:45:30.911Z,23.20
2022-08-17T21:48:13.011Z,23.20
2022-08-17T21:50:43.325Z,23.20
2022-08-17T21:53:22.808Z,23.20
2022-08-17T21:55:51.481Z,23.20
2022-08-17T21:58:34.676Z,23.10
2022-08-17T22:01:23.502Z,23.10
2022-08-17T22:04:24.154Z,23.20
2022-08-17T22:06:57.432Z,23.20
2022-08-17T22:09:41.633Z,23.20
2022-08-17T22:12:16.379Z,23.20
2022-08-17T22:14:56.708Z,23.20
2022-08-17T22:17:35.388Z,23.20
2022-08-17T22:20:09.485Z,23.20
2022-08-17T22:23:12.463Z,23.20
2022-08-17T22:25:57.494Z,23.20
2022-08-17T22:28:43.835Z,23.20
2022-08-17T22:31:16.848Z,23.20
2022-08-17T22:33:48.910Z,23.20
2022-08-17T22:36:29.010Z,23.20
2022-08-17T22:39:07.395Z,23.20
2022-08-17T22:41:53.216Z,23.20
2022-08-17T22:44:37.485Z,23.20
2022-08-17T22:47:28.244Z,23.20
2022-08-17T22:49:58.396Z,23.30
2022-08-17T22:52:32.371Z,23.30
2022-08-17T22:55:32.542Z,23.30
2022-08-17T22:58:19.721Z,23.20
2022-08-17T23:00:49.335Z,23.20
2022-08-17T23:03:24.320Z,23.20
2022-08-17T23:06:09.569Z,23.20
2022-08-17T23:08:54.573Z,23.20
2022-08-17T23:11:36.923Z,23.20
2022-08-17T23:14:14.459Z,23.20
2022-08-17T23:16:44.484Z,23.20
2022-08-17T23:19:15.313Z,23.20
2022-08-17T23:21:44.833Z,23.20
2022-08-17T23:24:22.053Z,23.20
2022-08-17T23:26:49.138Z,23.10
2022-08-17T23:29:16.197Z,23.20
2022-08-17T23:31:43.147Z,23.20
2022-08-17T23:34:13.147Z,23.10
2022-08-17T23:36:39.970Z,23.20
2022-08-17T23:39:07.243Z,23.20
2022-08-17T23:41:37.449Z,23.20
2022-08-17T23:44:05.859Z,23.20
2022-08-17T23:46:33.319Z,23.20
2022-08-17T23:49:00.566Z,23.20
2022-08-17T23:51:31.433Z,23.20
2022-08-17T23:54:08.133Z,23.20
2022-08-17T23:56:45.396Z,23.20
2022-08-17T23:59:18.332Z,23.20
